Terminal Aerodrome Forecast
Issued by NWS

Home | Current Version | Previous Version | Text Only | Print | Product List | Glossary On
Versions: 1 2 3 4 5 6 7 8 9 10 11 12 13
696
FTUS46 KMTR 100534
TAFOAK
TAF
KOAK 100534Z 1006/1112 17012KT P6SM VCSH OVC030
     FM101000 18018G24KT P6SM -RA OVC015
     FM101600 18011KT 5SM -RA BR SCT008 OVC015
     FM102200 21010KT 4SM -RA OVC008
     FM110000 23005KT P6SM OVC015
     FM110300 25005KT P6SM BKN050=

USA.gov is the U.S. government's official web portal to all federal, state and local government web resources and services.